Time;durP1;ratioP1;P1;durP2;ratioP2;P2;SDS_P1;SDS_P2;PMS_P1;PMS_P2;Temp;Humidity;BMP_temperature;BMP_pressure;BME280_temperature;BME280_humidity;BME280_pressure;Samples;Min_cycle;Max_cycle;Signal;HPM_P1;HPM_P2
2022/10/13 00:00:24;;;;;;;23.45;11.23;;;;;;;;;;5033676;28;20045;-79
2022/10/13 00:02:51;;;;;;;26.35;11.52;;;;;;;;;;5033450;28;20045;-82
2022/10/13 00:05:18;;;;;;;24.10;10.43;;;;;;;;;;5032801;28;20050;-80
2022/10/13 00:07:44;;;;;;;22.73;10.27;;;;;;;;;;5043469;28;20104;-79
2022/10/13 00:10:11;;;;;;;21.52;10.13;;;;;;;;;;5046274;28;20312;-80
2022/10/13 00:12:37;;;;;;;24.77;10.10;;;;;;;;;;5033403;28;20064;-78
2022/10/13 00:15:05;;;;;;;26.85;10.30;;;;;;;;;;5033257;28;20046;-81
2022/10/13 00:17:32;;;;;;;23.10;9.95;;;;;;;;;;5038851;28;20050;-79
2022/10/13 00:19:59;;;;;;;24.33;9.63;;;;;;;;;;5053491;28;20065;-79
2022/10/13 00:22:26;;;;;;;24.55;9.65;;;;;;;;;;5053414;28;20084;-80
2022/10/13 00:24:52;;;;;;;21.63;9.57;;;;;;;;;;5038243;28;20042;-80
2022/10/13 00:27:19;;;;;;;23.58;10.10;;;;;;;;;;5032571;28;20045;-80
2022/10/13 00:29:45;;;;;;;20.25;8.88;;;;;;;;;;5031385;28;20383;-80
2022/10/13 00:32:11;;;;;;;27.38;10.20;;;;;;;;;;5033314;28;20049;-80
2022/10/13 00:34:38;;;;;;;25.67;9.60;;;;;;;;;;5031393;28;20045;-80
2022/10/13 00:37:04;;;;;;;20.70;9.73;;;;;;;;;;5038277;28;20055;-79
2022/10/13 00:39:31;;;;;;;20.33;9.48;;;;;;;;;;5038703;28;20056;-80
2022/10/13 00:41:58;;;;;;;19.58;9.60;;;;;;;;;;5039463;28;20059;-81
2022/10/13 00:44:43;;;;;;;20.02;10.05;;;;;;;;;;5038415;28;20075;-80
2022/10/13 00:47:09;;;;;;;19.40;9.13;;;;;;;;;;5037104;28;20064;-81
2022/10/13 00:49:36;;;;;;;21.50;10.60;;;;;;;;;;5036620;28;20073;-82
2022/10/13 00:52:03;;;;;;;16.65;9.07;;;;;;;;;;5038663;28;20060;-80
2022/10/13 00:54:29;;;;;;;19.85;9.00;;;;;;;;;;5042908;28;20068;-80
2022/10/13 00:56:56;;;;;;;27.52;9.60;;;;;;;;;;5051366;28;20037;-79
2022/10/13 00:59:26;;;;;;;21.35;9.82;;;;;;;;;;5032824;28;20042;-78
2022/10/13 01:01:52;;;;;;;21.08;9.57;;;;;;;;;;5031451;28;20060;-79
2022/10/13 01:04:21;;;;;;;21.60;9.70;;;;;;;;;;5029448;28;20053;-79
2022/10/13 01:06:48;;;;;;;19.95;9.10;;;;;;;;;;5036717;28;20144;-78
2022/10/13 01:09:14;;;;;;;23.88;9.75;;;;;;;;;;5031627;28;20104;-79
2022/10/13 01:11:47;;;;;;;21.67;10.30;;;;;;;;;;5031577;28;20208;-80
2022/10/13 01:14:16;;;;;;;15.68;8.93;;;;;;;;;;5030630;28;20091;-80
2022/10/13 01:16:54;;;;;;;19.92;9.40;;;;;;;;;;5029110;28;20053;-79
2022/10/13 01:19:36;;;;;;;21.55;8.82;;;;;;;;;;5030097;28;20045;-79
2022/10/13 01:22:11;;;;;;;22.17;9.07;;;;;;;;;;5033252;28;20076;-80
2022/10/13 01:24:58;;;;;;;34.75;9.55;;;;;;;;;;5032759;28;20060;-80
2022/10/13 01:27:43;;;;;;;22.77;9.52;;;;;;;;;;5009186;28;20055;-78
2022/10/13 01:30:12;;;;;;;24.40;9.60;;;;;;;;;;5014113;28;20064;-79
2022/10/13 01:32:57;;;;;;;24.70;9.57;;;;;;;;;;5012877;28;20299;-80
2022/10/13 01:35:31;;;;;;;17.48;9.73;;;;;;;;;;5012156;28;20873;-80
2022/10/13 01:38:03;;;;;;;20.73;9.05;;;;;;;;;;5010312;28;20057;-78
2022/10/13 01:40:56;;;;;;;26.73;10.02;;;;;;;;;;5011066;28;20672;-79
2022/10/13 01:43:27;;;;;;;21.77;10.30;;;;;;;;;;5009050;28;20042;-80
2022/10/13 01:45:53;;;;;;;21.70;9.25;;;;;;;;;;5011331;28;20631;-79
2022/10/13 01:48:20;;;;;;;27.92;10.45;;;;;;;;;;5010847;28;20052;-79
2022/10/13 01:50:47;;;;;;;23.35;9.63;;;;;;;;;;5010969;28;20433;-81
2022/10/13 01:53:14;;;;;;;23.67;9.77;;;;;;;;;;5011380;28;20050;-81
2022/10/13 01:55:48;;;;;;;21.45;9.15;;;;;;;;;;5011558;28;20046;-81
2022/10/13 01:58:14;;;;;;;21.60;9.13;;;;;;;;;;5011493;28;20057;-81
2022/10/13 02:00:43;;;;;;;19.75;9.63;;;;;;;;;;5030949;28;20053;-81
2022/10/13 02:03:33;;;;;;;20.15;10.23;;;;;;;;;;5029701;28;20045;-79
2022/10/13 02:05:59;;;;;;;23.38;10.68;;;;;;;;;;5029652;28;20548;-79
2022/10/13 02:08:36;;;;;;;23.30;10.57;;;;;;;;;;5030073;28;20053;-81
2022/10/13 02:11:17;;;;;;;21.05;9.57;;;;;;;;;;5029486;28;20045;-81
2022/10/13 02:13:49;;;;;;;27.80;10.52;;;;;;;;;;5029906;28;20064;-81
2022/10/13 02:16:19;;;;;;;31.88;10.60;;;;;;;;;;5029167;28;20072;-79
2022/10/13 02:18:46;;;;;;;26.08;10.55;;;;;;;;;;5030164;28;20061;-81
2022/10/13 02:21:14;;;;;;;22.20;9.88;;;;;;;;;;5032759;28;20066;-82
2022/10/13 02:23:41;;;;;;;25.88;11.00;;;;;;;;;;5031079;28;20052;-81
2022/10/13 02:26:08;;;;;;;23.52;10.95;;;;;;;;;;5034238;28;20046;-80
2022/10/13 02:28:36;;;;;;;24.48;10.77;;;;;;;;;;5033677;28;20053;-79
2022/10/13 02:31:04;;;;;;;20.52;10.75;;;;;;;;;;5046489;28;20084;-79
2022/10/13 02:33:30;;;;;;;24.05;11.25;;;;;;;;;;5048504;28;20565;-81
2022/10/13 02:35:56;;;;;;;24.02;11.50;;;;;;;;;;5034234;28;20045;-81
2022/10/13 02:38:23;;;;;;;27.63;11.52;;;;;;;;;;5034617;28;20049;-82
2022/10/13 02:40:50;;;;;;;24.23;11.43;;;;;;;;;;5035515;28;20049;-81
2022/10/13 02:43:16;;;;;;;26.90;10.95;;;;;;;;;;5034351;28;20055;-80
2022/10/13 02:45:43;;;;;;;28.38;11.02;;;;;;;;;;5033726;28;20057;-81
2022/10/13 02:48:09;;;;;;;27.83;12.10;;;;;;;;;;5033501;28;20053;-80
2022/10/13 02:50:35;;;;;;;28.50;12.77;;;;;;;;;;5033103;28;20053;-80
2022/10/13 02:53:02;;;;;;;28.63;12.80;;;;;;;;;;5034141;28;20049;-80
2022/10/13 02:55:28;;;;;;;24.05;11.80;;;;;;;;;;5034438;28;20042;-80
2022/10/13 02:57:55;;;;;;;23.73;12.18;;;;;;;;;;5033914;28;20058;-81
2022/10/13 03:00:21;;;;;;;27.70;11.82;;;;;;;;;;5034800;28;20049;-81
2022/10/13 03:02:48;;;;;;;23.42;11.48;;;;;;;;;;5035272;28;20520;-81
2022/10/13 03:05:14;;;;;;;25.63;12.48;;;;;;;;;;5032825;28;20510;-79
2022/10/13 03:07:40;;;;;;;27.48;12.75;;;;;;;;;;5033964;28;20068;-79
2022/10/13 03:10:07;;;;;;;31.42;12.73;;;;;;;;;;5034166;28;20144;-80
2022/10/13 03:12:33;;;;;;;26.75;12.32;;;;;;;;;;5033816;28;20049;-80
2022/10/13 03:15:01;;;;;;;26.95;13.18;;;;;;;;;;5034577;28;20056;-80
2022/10/13 03:17:28;;;;;;;24.33;12.70;;;;;;;;;;5033496;28;20046;-81
2022/10/13 03:19:54;;;;;;;30.45;12.43;;;;;;;;;;5033696;28;20053;-79
2022/10/13 03:22:20;;;;;;;37.00;13.82;;;;;;;;;;5034871;28;20045;-79
2022/10/13 03:24:47;;;;;;;30.52;12.77;;;;;;;;;;5033982;28;20045;-80
2022/10/13 03:27:14;;;;;;;27.83;13.68;;;;;;;;;;5033655;28;20049;-80
2022/10/13 03:29:41;;;;;;;24.83;13.82;;;;;;;;;;5033372;28;20437;-81
2022/10/13 03:32:07;;;;;;;32.88;14.85;;;;;;;;;;5034511;28;20045;-78
2022/10/13 03:34:33;;;;;;;26.35;14.07;;;;;;;;;;5033806;28;20067;-79
2022/10/13 03:37:00;;;;;;;37.15;15.10;;;;;;;;;;5033989;28;20049;-78
2022/10/13 03:39:26;;;;;;;33.95;14.98;;;;;;;;;;5035109;28;20052;-78
2022/10/13 03:41:52;;;;;;;32.35;15.20;;;;;;;;;;5032833;28;20073;-79
2022/10/13 03:44:19;;;;;;;31.13;15.82;;;;;;;;;;5045749;28;20050;-78
2022/10/13 03:46:45;;;;;;;34.47;15.95;;;;;;;;;;5055014;28;20045;-80
2022/10/13 03:49:11;;;;;;;36.35;15.68;;;;;;;;;;5050169;28;20050;-80
2022/10/13 03:51:38;;;;;;;35.33;17.25;;;;;;;;;;5034788;28;20046;-81
2022/10/13 03:54:04;;;;;;;36.75;16.75;;;;;;;;;;5033617;28;20140;-80
2022/10/13 03:56:31;;;;;;;44.63;17.80;;;;;;;;;;5032980;28;20049;-79
2022/10/13 03:58:58;;;;;;;37.33;17.73;;;;;;;;;;5033158;28;20449;-81
2022/10/13 04:01:26;;;;;;;37.42;17.33;;;;;;;;;;5032833;28;20663;-79
2022/10/13 04:03:54;;;;;;;37.15;17.42;;;;;;;;;;5033577;28;20049;-81
2022/10/13 04:06:21;;;;;;;36.03;17.52;;;;;;;;;;5033240;28;20417;-80
2022/10/13 04:08:47;;;;;;;43.42;17.60;;;;;;;;;;5032797;28;20053;-80
2022/10/13 04:11:14;;;;;;;37.83;18.48;;;;;;;;;;5032451;28;20115;-81
2022/10/13 04:13:41;;;;;;;40.08;18.55;;;;;;;;;;5032508;28;20049;-81
2022/10/13 04:16:13;;;;;;;41.30;18.83;;;;;;;;;;5031068;28;20042;-81
2022/10/13 04:18:39;;;;;;;39.83;18.98;;;;;;;;;;5028927;28;20268;-81
2022/10/13 04:21:13;;;;;;;47.67;18.75;;;;;;;;;;5031038;28;20466;-81
2022/10/13 04:23:40;;;;;;;39.05;18.65;;;;;;;;;;5030980;28;20060;-76
2022/10/13 04:26:06;;;;;;;42.13;19.55;;;;;;;;;;5029087;28;20059;-77
2022/10/13 04:28:34;;;;;;;47.80;20.92;;;;;;;;;;5027506;28;20513;-77
2022/10/13 04:31:02;;;;;;;37.97;18.75;;;;;;;;;;5029486;28;20053;-81
2022/10/13 04:33:28;;;;;;;46.97;20.10;;;;;;;;;;5030700;28;20068;-81
2022/10/13 04:35:54;;;;;;;42.40;20.25;;;;;;;;;;5030659;28;20049;-82
2022/10/13 04:38:21;;;;;;;42.80;18.85;;;;;;;;;;5029369;28;20046;-82
2022/10/13 04:40:48;;;;;;;35.55;18.27;;;;;;;;;;5032258;28;20459;-81
2022/10/13 04:43:15;;;;;;;37.08;18.55;;;;;;;;;;5030130;28;20609;-80
2022/10/13 04:45:42;;;;;;;38.28;18.20;;;;;;;;;;5032012;28;20056;-80
2022/10/13 04:48:08;;;;;;;36.60;17.77;;;;;;;;;;5032710;28;20080;-80
2022/10/13 04:50:34;;;;;;;37.67;17.52;;;;;;;;;;5032934;28;20049;-82
2022/10/13 04:53:01;;;;;;;33.83;16.63;;;;;;;;;;5040412;28;20049;-82
2022/10/13 04:55:27;;;;;;;41.30;18.30;;;;;;;;;;5043888;28;20053;-81
2022/10/13 04:57:53;;;;;;;35.63;17.42;;;;;;;;;;5046906;28;20061;-80
2022/10/13 05:00:20;;;;;;;36.72;18.30;;;;;;;;;;5037739;28;20053;-81
2022/10/13 05:02:47;;;;;;;36.90;17.63;;;;;;;;;;5034712;28;20084;-80
2022/10/13 05:05:13;;;;;;;33.90;18.00;;;;;;;;;;5031244;28;20046;-80
2022/10/13 05:07:42;;;;;;;43.40;18.75;;;;;;;;;;5033745;28;20294;-80
2022/10/13 05:10:09;;;;;;;42.63;18.85;;;;;;;;;;5034204;28;20506;-80
2022/10/13 05:12:35;;;;;;;41.70;18.48;;;;;;;;;;5033446;28;20064;-80
2022/10/13 05:15:02;;;;;;;41.53;18.30;;;;;;;;;;5035148;28;20067;-79
2022/10/13 05:17:30;;;;;;;35.05;17.58;;;;;;;;;;5032540;28;20146;-82
2022/10/13 05:20:00;;;;;;;32.83;18.25;;;;;;;;;;5028170;28;20124;-81
2022/10/13 05:22:27;;;;;;;40.55;17.50;;;;;;;;;;5037080;28;20053;-79
2022/10/13 05:24:53;;;;;;;34.63;17.60;;;;;;;;;;5046346;28;20113;-80
2022/10/13 05:27:20;;;;;;;44.75;17.83;;;;;;;;;;5036187;28;20053;-82
2022/10/13 05:29:46;;;;;;;42.47;19.92;;;;;;;;;;5032075;28;20053;-82
2022/10/13 05:32:12;;;;;;;42.30;20.17;;;;;;;;;;5031417;28;20060;-82
2022/10/13 05:34:39;;;;;;;39.85;21.10;;;;;;;;;;5032201;28;20166;-82
2022/10/13 05:37:05;;;;;;;48.65;23.27;;;;;;;;;;5032740;28;20195;-82
2022/10/13 05:39:32;;;;;;;55.08;22.15;;;;;;;;;;5033156;28;20152;-82
2022/10/13 05:41:58;;;;;;;51.72;23.27;;;;;;;;;;5032904;28;20049;-81
2022/10/13 05:44:25;;;;;;;44.20;23.30;;;;;;;;;;5032380;28;20053;-83
2022/10/13 05:46:51;;;;;;;52.88;23.63;;;;;;;;;;5031483;28;20050;-82
2022/10/13 05:49:17;;;;;;;55.78;23.63;;;;;;;;;;5031986;28;20057;-82
2022/10/13 05:51:46;;;;;;;43.72;21.73;;;;;;;;;;5031871;28;20049;-80
2022/10/13 05:54:14;;;;;;;39.85;20.92;;;;;;;;;;5031795;28;20075;-81
2022/10/13 05:56:49;;;;;;;46.63;19.98;;;;;;;;;;5033833;28;20045;-83
2022/10/13 05:59:17;;;;;;;42.08;18.60;;;;;;;;;;5034387;28;20053;-81
2022/10/13 06:01:43;;;;;;;40.65;19.42;;;;;;;;;;5036203;28;20079;-82
2022/10/13 06:04:13;;;;;;;41.38;18.65;;;;;;;;;;5034129;28;20413;-82
2022/10/13 06:06:39;;;;;;;37.33;17.73;;;;;;;;;;5035297;28;20049;-81
2022/10/13 06:09:06;;;;;;;39.15;17.83;;;;;;;;;;5035719;28;20053;-83
2022/10/13 06:11:32;;;;;;;33.97;18.70;;;;;;;;;;5033973;28;20064;-82
2022/10/13 06:13:58;;;;;;;34.38;16.75;;;;;;;;;;5034494;28;20049;-82
2022/10/13 06:16:25;;;;;;;35.42;17.35;;;;;;;;;;5035046;28;20061;-81
2022/10/13 06:18:51;;;;;;;37.80;16.58;;;;;;;;;;5034833;28;20405;-82
2022/10/13 06:21:17;;;;;;;33.10;17.70;;;;;;;;;;5034448;28;20056;-83
2022/10/13 06:23:44;;;;;;;36.00;18.40;;;;;;;;;;5035422;28;20517;-83
2022/10/13 06:26:11;;;;;;;43.88;18.70;;;;;;;;;;5034016;28;20057;-80
2022/10/13 06:28:37;;;;;;;36.70;17.58;;;;;;;;;;5032969;28;20064;-81
2022/10/13 06:31:05;;;;;;;36.10;16.83;;;;;;;;;;5034394;28;20208;-81
2022/10/13 06:33:31;;;;;;;42.05;17.60;;;;;;;;;;5035270;28;20399;-83
2022/10/13 06:36:02;;;;;;;37.20;18.00;;;;;;;;;;5034807;28;20064;-80
2022/10/13 06:38:28;;;;;;;30.58;16.88;;;;;;;;;;5033113;28;20049;-81
2022/10/13 06:40:58;;;;;;;38.72;19.67;;;;;;;;;;5033871;28;20493;-81
2022/10/13 06:43:24;;;;;;;49.42;21.15;;;;;;;;;;5033931;28;20405;-81
2022/10/13 06:46:01;;;;;;;42.13;22.70;;;;;;;;;;5035012;28;20063;-82
2022/10/13 06:48:27;;;;;;;45.38;25.25;;;;;;;;;;5034161;28;20050;-81
2022/10/13 06:50:54;;;;;;;58.00;26.67;;;;;;;;;;5034680;28;20057;-81
2022/10/13 06:53:20;;;;;;;58.30;25.40;;;;;;;;;;5034210;28;20049;-82
2022/10/13 06:55:46;;;;;;;52.95;24.83;;;;;;;;;;5034114;28;20472;-82
2022/10/13 06:58:17;;;;;;;50.33;22.55;;;;;;;;;;5035007;28;20497;-82
2022/10/13 07:00:44;;;;;;;45.70;21.10;;;;;;;;;;5033666;28;20050;-82
2022/10/13 07:03:11;;;;;;;41.30;20.27;;;;;;;;;;5035235;28;20132;-82
2022/10/13 07:05:37;;;;;;;45.25;20.58;;;;;;;;;;5033577;28;20439;-83
2022/10/13 07:08:03;;;;;;;43.95;19.13;;;;;;;;;;5033884;28;20049;-81
2022/10/13 07:10:30;;;;;;;37.58;17.08;;;;;;;;;;5044092;28;20051;-84
2022/10/13 07:12:56;;;;;;;35.08;17.50;;;;;;;;;;5056147;28;20037;-81
2022/10/13 07:15:25;;;;;;;35.30;16.63;;;;;;;;;;5054209;28;20106;-82
2022/10/13 07:17:52;;;;;;;32.88;15.77;;;;;;;;;;5044983;28;20052;-81
2022/10/13 07:20:20;;;;;;;32.80;15.45;;;;;;;;;;5049321;28;20416;-82
2022/10/13 07:22:46;;;;;;;36.22;14.98;;;;;;;;;;5039143;28;20459;-82
2022/10/13 07:25:13;;;;;;;32.92;14.57;;;;;;;;;;5036878;28;20383;-81
2022/10/13 07:27:40;;;;;;;29.48;14.18;;;;;;;;;;5034764;28;20537;-81
2022/10/13 07:30:07;;;;;;;28.92;15.68;;;;;;;;;;5034317;28;20057;-80
2022/10/13 07:32:34;;;;;;;28.15;15.10;;;;;;;;;;5038329;28;20045;-81
2022/10/13 07:35:01;;;;;;;30.90;14.55;;;;;;;;;;5035299;28;20060;-79
2022/10/13 07:37:28;;;;;;;25.83;13.82;;;;;;;;;;5038220;28;20100;-82
2022/10/13 07:39:54;;;;;;;31.20;15.13;;;;;;;;;;5036696;28;20049;-82
2022/10/13 07:42:21;;;;;;;23.08;13.32;;;;;;;;;;5037701;28;20045;-81
2022/10/13 07:44:47;;;;;;;22.80;13.00;;;;;;;;;;5035812;28;20129;-82
2022/10/13 07:47:13;;;;;;;30.17;13.63;;;;;;;;;;5037952;28;20052;-82
2022/10/13 07:49:40;;;;;;;28.27;13.07;;;;;;;;;;5038487;28;20053;-82
2022/10/13 07:52:06;;;;;;;27.73;12.95;;;;;;;;;;5036905;28;20109;-81
2022/10/13 07:54:32;;;;;;;26.42;13.40;;;;;;;;;;5036582;28;20280;-80
2022/10/13 07:56:59;;;;;;;29.95;14.05;;;;;;;;;;5034192;28;20414;-81
2022/10/13 07:59:25;;;;;;;27.83;13.70;;;;;;;;;;5036456;28;20047;-81
2022/10/13 08:01:52;;;;;;;28.33;12.45;;;;;;;;;;5038441;28;20467;-82
2022/10/13 08:04:18;;;;;;;25.70;12.93;;;;;;;;;;5035759;28;20571;-81
2022/10/13 08:06:45;;;;;;;26.42;12.25;;;;;;;;;;5034022;28;20053;-81
2022/10/13 08:09:11;;;;;;;25.90;13.10;;;;;;;;;;5035964;28;20050;-81
2022/10/13 08:11:40;;;;;;;27.95;13.27;;;;;;;;;;5036715;28;20144;-82
2022/10/13 08:14:08;;;;;;;35.70;12.68;;;;;;;;;;5035892;28;20103;-81
2022/10/13 08:16:37;;;;;;;22.13;12.90;;;;;;;;;;5037152;28;20053;-81
2022/10/13 08:19:05;;;;;;;21.10;12.70;;;;;;;;;;5035307;28;20045;-81
2022/10/13 08:21:32;;;;;;;29.13;13.85;;;;;;;;;;5037107;28;20096;-80
2022/10/13 08:24:18;;;;;;;26.38;13.32;;;;;;;;;;5037210;28;20041;-81
2022/10/13 08:26:45;;;;;;;26.30;13.38;;;;;;;;;;5036814;28;20049;-82
2022/10/13 08:29:18;;;;;;;25.02;13.52;;;;;;;;;;5034930;28;20210;-81
2022/10/13 08:31:48;;;;;;;24.15;13.70;;;;;;;;;;5036917;28;20076;-81
2022/10/13 08:34:15;;;;;;;27.52;13.32;;;;;;;;;;5035027;28;20115;-81
2022/10/13 08:36:42;;;;;;;24.05;12.73;;;;;;;;;;5034403;28;20041;-80
2022/10/13 08:39:09;;;;;;;23.48;12.65;;;;;;;;;;5037916;28;20072;-80
2022/10/13 08:41:37;;;;;;;23.92;12.00;;;;;;;;;;5038263;28;20069;-81
2022/10/13 08:44:05;;;;;;;20.40;11.65;;;;;;;;;;5034099;28;20136;-80
2022/10/13 08:46:59;;;;;;;25.35;12.32;;;;;;;;;;5035728;28;20049;-80
2022/10/13 08:49:29;;;;;;;20.30;11.35;;;;;;;;;;5052708;28;20072;-80
2022/10/13 08:51:57;;;;;;;19.85;11.07;;;;;;;;;;5033559;28;20140;-81
2022/10/13 08:54:26;;;;;;;22.05;11.35;;;;;;;;;;5030368;28;20053;-81
2022/10/13 08:56:52;;;;;;;21.25;10.10;;;;;;;;;;5031058;28;20049;-80
2022/10/13 08:59:20;;;;;;;19.88;10.48;;;;;;;;;;5029729;28;20411;-80
2022/10/13 09:01:48;;;;;;;20.77;10.50;;;;;;;;;;5031846;28;20057;-81
2022/10/13 09:04:20;;;;;;;19.70;10.52;;;;;;;;;;5030245;28;20064;-78
2022/10/13 09:06:53;;;;;;;18.65;9.80;;;;;;;;;;5031535;28;20061;-81
2022/10/13 09:09:19;;;;;;;22.08;10.45;;;;;;;;;;5032022;28;20057;-81
2022/10/13 09:11:46;;;;;;;20.45;9.93;;;;;;;;;;5033961;28;20053;-81
2022/10/13 09:14:23;;;;;;;20.15;9.98;;;;;;;;;;5033213;28;20053;-80
2022/10/13 09:16:51;;;;;;;22.50;9.55;;;;;;;;;;5033775;28;20581;-81
2022/10/13 09:19:21;;;;;;;22.33;10.05;;;;;;;;;;5033274;28;20057;-80
2022/10/13 09:21:48;;;;;;;18.58;9.43;;;;;;;;;;5034492;28;20426;-82
2022/10/13 09:24:16;;;;;;;17.30;9.15;;;;;;;;;;5034119;28;20525;-80
2022/10/13 09:26:43;;;;;;;21.17;9.63;;;;;;;;;;5033482;28;20060;-80
2022/10/13 09:29:22;;;;;;;19.75;9.38;;;;;;;;;;5033913;28;20064;-81
2022/10/13 09:31:50;;;;;;;18.38;8.65;;;;;;;;;;5034685;28;20185;-80
2022/10/13 09:34:16;;;;;;;16.85;7.95;;;;;;;;;;5036423;28;20077;-80
2022/10/13 09:36:59;;;;;;;20.02;8.23;;;;;;;;;;5034479;28;20513;-82
2022/10/13 09:39:26;;;;;;;18.50;8.10;;;;;;;;;;5037810;28;20053;-82
2022/10/13 09:42:07;;;;;;;16.80;7.63;;;;;;;;;;5049589;28;20105;-79
2022/10/13 09:44:34;;;;;;;15.23;7.57;;;;;;;;;;5039712;28;20104;-80
2022/10/13 09:47:02;;;;;;;13.35;7.13;;;;;;;;;;5035763;28;20042;-80
2022/10/13 09:49:28;;;;;;;20.80;7.13;;;;;;;;;;5032530;28;20045;-81
2022/10/13 09:52:10;;;;;;;17.77;7.82;;;;;;;;;;5035024;28;20049;-81
2022/10/13 09:54:48;;;;;;;15.25;7.57;;;;;;;;;;5034062;28;20045;-81
2022/10/13 09:57:24;;;;;;;16.55;7.35;;;;;;;;;;5034261;28;20051;-79
2022/10/13 09:59:50;;;;;;;;;;;;;;;;;;5036565;28;20055;-81
2022/10/13 10:02:17;;;;;;;;;;;;;;;;;;5035532;28;19925;-80
2022/10/13 10:04:46;;;;;;;18.73;8.88;;;;;;;;;;5034849;28;19948;-80
2022/10/13 10:07:14;;;;;;;16.05;7.78;;;;;;;;;;5034521;28;20117;-81
2022/10/13 10:09:46;;;;;;;22.42;8.00;;;;;;;;;;5033910;28;20049;-80
2022/10/13 10:12:15;;;;;;;17.80;7.88;;;;;;;;;;5034139;28;20045;-80
2022/10/13 10:14:42;;;;;;;14.88;7.22;;;;;;;;;;5033294;28;20049;-80
2022/10/13 10:17:08;;;;;;;14.05;6.72;;;;;;;;;;5033685;28;20049;-81
2022/10/13 10:19:44;;;;;;;16.85;6.30;;;;;;;;;;5032919;28;20053;-80
2022/10/13 10:22:29;;;;;;;17.10;7.15;;;;;;;;;;5036711;28;20042;-80
2022/10/13 10:24:55;;;;;;;12.43;6.87;;;;;;;;;;5036371;28;20410;-81
2022/10/13 10:27:40;;;;;;;16.27;6.38;;;;;;;;;;5033957;28;20055;-80
2022/10/13 10:30:12;;;;;;;19.52;6.88;;;;;;;;;;5032354;28;20116;-80
2022/10/13 10:32:38;;;;;;;14.48;6.40;;;;;;;;;;5036332;28;20053;-81
2022/10/13 10:35:43;;;;;;;15.27;6.85;;;;;;;;;;5033802;28;20055;-80
2022/10/13 10:38:12;;;;;;;19.17;5.80;;;;;;;;;;5001307;28;20122;-80
2022/10/13 10:40:48;;;;;;;17.17;6.20;;;;;;;;;;5001647;28;20049;-80
2022/10/13 10:43:25;;;;;;;15.80;5.80;;;;;;;;;;5034373;28;20056;-79
2022/10/13 10:45:55;;;;;;;15.40;6.38;;;;;;;;;;5041436;28;20050;-80
2022/10/13 10:48:31;;;;;;;15.70;6.35;;;;;;;;;;5037110;28;20063;-80
2022/10/13 10:50:59;;;;;;;14.40;6.07;;;;;;;;;;5039652;28;20046;-79
2022/10/13 10:53:41;;;;;;;13.77;6.55;;;;;;;;;;5041061;28;20045;-79
2022/10/13 10:56:26;;;;;;;13.75;7.45;;;;;;;;;;5033590;28;20627;-79
2022/10/13 10:59:06;;;;;;;12.82;6.68;;;;;;;;;;5032263;28;20052;-79
2022/10/13 11:01:48;;;;;;;17.08;6.60;;;;;;;;;;5026197;28;20092;-79
2022/10/13 11:04:35;;;;;;;15.48;6.68;;;;;;;;;;5037436;28;20140;-79
2022/10/13 11:07:02;;;;;;;13.93;7.28;;;;;;;;;;5036035;28;20129;-80
2022/10/13 11:09:41;;;;;;;19.95;7.68;;;;;;;;;;5035227;28;20178;-79
2022/10/13 11:12:19;;;;;;;18.05;7.20;;;;;;;;;;5036216;28;20086;-80
2022/10/13 11:14:52;;;;;;;19.60;7.30;;;;;;;;;;5035634;28;20152;-80
2022/10/13 11:17:31;;;;;;;17.23;7.65;;;;;;;;;;5036133;28;20141;-79
2022/10/13 11:19:58;;;;;;;17.50;7.88;;;;;;;;;;5036284;28;20319;-79
2022/10/13 11:22:30;;;;;;;19.60;7.97;;;;;;;;;;5036497;28;20053;-80
2022/10/13 11:25:01;;;;;;;23.58;8.40;;;;;;;;;;5036492;28;20045;-79
2022/10/13 11:27:33;;;;;;;19.80;8.95;;;;;;;;;;5036525;28;20053;-79
2022/10/13 11:30:00;;;;;;;17.05;8.25;;;;;;;;;;5032758;28;20068;-79
2022/10/13 11:32:29;;;;;;;17.88;8.38;;;;;;;;;;5035632;28;20409;-80
2022/10/13 11:34:57;;;;;;;21.30;9.02;;;;;;;;;;5034248;28;20122;-79
2022/10/13 11:37:27;;;;;;;21.15;9.20;;;;;;;;;;5035978;28;20179;-79
2022/10/13 11:40:03;;;;;;;18.92;8.35;;;;;;;;;;5037023;28;20049;-80
2022/10/13 11:42:33;;;;;;;21.67;8.65;;;;;;;;;;5041861;28;20101;-80
2022/10/13 11:45:16;;;;;;;17.88;9.07;;;;;;;;;;5035962;28;20052;-79
2022/10/13 11:47:45;;;;;;;17.75;8.52;;;;;;;;;;5034421;28;20075;-80
2022/10/13 11:50:11;;;;;;;17.48;8.73;;;;;;;;;;5035161;28;20128;-81
2022/10/13 11:52:57;;;;;;;23.05;9.00;;;;;;;;;;5035882;28;20116;-80
2022/10/13 11:55:29;;;;;;;19.77;9.10;;;;;;;;;;5035683;28;20046;-79
2022/10/13 11:58:14;;;;;;;21.48;9.05;;;;;;;;;;5040879;28;20049;-79
2022/10/13 12:00:51;;;;;;;18.95;9.02;;;;;;;;;;5041584;28;20041;-79
2022/10/13 12:03:28;;;;;;;19.55;9.27;;;;;;;;;;5050758;28;20113;-80
2022/10/13 12:06:00;;;;;;;19.88;9.77;;;;;;;;;;5037048;28;20080;-81
2022/10/13 12:08:27;;;;;;;21.50;9.75;;;;;;;;;;5035220;28;20063;-80
2022/10/13 12:10:56;;;;;;;18.55;8.82;;;;;;;;;;5034753;28;20054;-81
2022/10/13 12:13:24;;;;;;;22.15;9.55;;;;;;;;;;5033648;28;20049;-80
2022/10/13 12:16:02;;;;;;;20.92;9.73;;;;;;;;;;5033800;28;20057;-80
2022/10/13 12:18:32;;;;;;;18.20;9.30;;;;;;;;;;5035498;28;20076;-80
2022/10/13 12:21:07;;;;;;;20.20;8.80;;;;;;;;;;5035442;28;20077;-81
2022/10/13 12:23:34;;;;;;;16.60;9.13;;;;;;;;;;5035819;28;20058;-81
2022/10/13 12:26:01;;;;;;;20.80;8.98;;;;;;;;;;5035162;28;20056;-82
2022/10/13 12:28:29;;;;;;;18.02;8.55;;;;;;;;;;5034001;28;20149;-82
2022/10/13 12:30:57;;;;;;;19.10;8.48;;;;;;;;;;5035473;28;20045;-82
2022/10/13 12:33:27;;;;;;;20.73;9.52;;;;;;;;;;5035248;28;20431;-81
2022/10/13 12:35:53;;;;;;;21.00;8.82;;;;;;;;;;5034809;28;20124;-82
2022/10/13 12:38:20;;;;;;;22.75;8.77;;;;;;;;;;5034781;28;20060;-81
2022/10/13 12:40:48;;;;;;;23.15;9.30;;;;;;;;;;5035219;28;20041;-80
2022/10/13 12:43:18;;;;;;;23.90;10.13;;;;;;;;;;5034416;28;20136;-80
2022/10/13 12:45:45;;;;;;;22.92;9.80;;;;;;;;;;5034310;28;20059;-81
2022/10/13 12:48:31;;;;;;;17.23;9.40;;;;;;;;;;5032682;28;20083;-80
2022/10/13 12:50:57;;;;;;;;;;;;;;;;;;5034520;28;20065;-80
2022/10/13 12:53:24;;;;;;;;;;;;;;;;;;5034110;28;20400;-80
2022/10/13 12:55:50;;;;;;;;;;;;;;;;;;5034876;28;19921;-80
2022/10/13 12:58:16;;;;;;;;;;;;;;;;;;5034614;28;19925;-80
2022/10/13 13:00:43;;;;;;;;;;;;;;;;;;5035850;28;20028;-80
2022/10/13 13:03:18;;;;;;;22.15;9.02;;;;;;;;;;5034920;28;19921;-80
2022/10/13 13:05:45;;;;;;;;;;;;;;;;;;5033590;28;20140;-79
2022/10/13 13:08:30;;;;;;;17.33;8.75;;;;;;;;;;5033339;28;19921;-79
2022/10/13 13:11:07;;;;;;;22.23;9.30;;;;;;;;;;5031163;28;20426;-81
2022/10/13 13:13:33;;;;;;;19.77;9.80;;;;;;;;;;5032598;28;20446;-79
2022/10/13 13:16:16;;;;;;;16.58;9.23;;;;;;;;;;5032704;28;20439;-80
2022/10/13 13:18:43;;;;;;;20.55;9.18;;;;;;;;;;5031657;28;20136;-80
2022/10/13 13:21:11;;;;;;;21.73;9.52;;;;;;;;;;5032096;28;20128;-81
2022/10/13 13:23:37;;;;;;;18.33;9.77;;;;;;;;;;5032730;28;20312;-80
2022/10/13 13:26:13;;;;;;;21.20;10.07;;;;;;;;;;5030647;28;20049;-80
2022/10/13 13:28:42;;;;;;;21.55;9.93;;;;;;;;;;5029455;28;20056;-80
2022/10/13 13:31:10;;;;;;;21.65;10.48;;;;;;;;;;5031759;28;20091;-80
2022/10/13 13:33:36;;;;;;;21.95;10.85;;;;;;;;;;5031743;28;20053;-80
2022/10/13 13:36:04;;;;;;;20.90;10.07;;;;;;;;;;5032296;28;20059;-80
2022/10/13 13:38:30;;;;;;;20.63;10.85;;;;;;;;;;5032524;28;20244;-80
2022/10/13 13:40:57;;;;;;;18.25;10.05;;;;;;;;;;5032414;28;20071;-80
2022/10/13 13:43:29;;;;;;;23.85;11.00;;;;;;;;;;5031916;28;20278;-80
2022/10/13 13:45:55;;;;;;;17.90;9.70;;;;;;;;;;5031510;28;20046;-80
2022/10/13 13:48:21;;;;;;;19.05;9.73;;;;;;;;;;5032418;28;20093;-82
2022/10/13 13:50:48;;;;;;;20.85;11.38;;;;;;;;;;5031830;28;20053;-81
2022/10/13 13:53:14;;;;;;;24.50;11.38;;;;;;;;;;5034327;28;20049;-81
2022/10/13 13:55:42;;;;;;;24.90;10.50;;;;;;;;;;5039889;28;20042;-80
2022/10/13 13:58:08;;;;;;;21.85;9.88;;;;;;;;;;5037052;28;20056;-81
2022/10/13 14:00:35;;;;;;;20.65;10.40;;;;;;;;;;5047970;28;20045;-80
2022/10/13 14:03:01;;;;;;;23.77;10.60;;;;;;;;;;5050934;28;20021;-80
2022/10/13 14:05:27;;;;;;;20.00;10.25;;;;;;;;;;5049984;28;20053;-82
2022/10/13 14:07:56;;;;;;;20.98;9.52;;;;;;;;;;5042419;28;20056;-82
2022/10/13 14:10:23;;;;;;;24.40;11.13;;;;;;;;;;5044555;28;20132;-81
2022/10/13 14:12:50;;;;;;;16.80;10.23;;;;;;;;;;5041090;28;20040;-82
2022/10/13 14:15:16;;;;;;;25.35;11.15;;;;;;;;;;5042609;28;20069;-80
2022/10/13 14:17:42;;;;;;;22.88;10.45;;;;;;;;;;5046914;28;20048;-82
2022/10/13 14:20:09;;;;;;;20.33;11.25;;;;;;;;;;5053165;28;20054;-80
2022/10/13 14:22:36;;;;;;;21.50;10.80;;;;;;;;;;5051982;28;20140;-81
2022/10/13 14:25:03;;;;;;;25.42;10.55;;;;;;;;;;5047654;28;20063;-81
2022/10/13 14:27:30;;;;;;;27.35;11.50;;;;;;;;;;5034773;28;20429;-80
2022/10/13 14:29:56;;;;;;;27.08;11.40;;;;;;;;;;5042956;28;20061;-81
2022/10/13 14:32:22;;;;;;;21.58;11.13;;;;;;;;;;5039071;28;20080;-81
2022/10/13 14:34:50;;;;;;;21.27;10.90;;;;;;;;;;5037214;28;20068;-81